<?xml version="1.0" encoding="UTF-8" standalone="no" ?>
<gpx xmlns="http://www.topografix.com/GPX/1/1" xmlns:xsi="http://www.w3.org/2001/XMLSchema-instance" xsi:schemaLocation="http://www.topografix.com/GPX/1/1 http://www.topografix.com/GPX/1/1/gpx.xsd" version="1.1" creator="VisuGPX - https://www.visugpx.com">
  <metadata>
    <name>Fabrezan 2 Partie basse</name>
  </metadata>
  <trk>
    <name><![CDATA[14129611-Fabrezan 2 Partie basse]]></name>
    <extensions>
      <line xmlns="http://www.topografix.com/GPX/gpx_style/0/2">
        <color>0000FF</color>
        <width>4</width>
      </line>
    </extensions>
    <trkseg>
      <trkpt lat="43.13724" lon="2.70104">
        <ele>70</ele>
        <time>2022-06-20T13:12:23Z</time>
      </trkpt>
      <trkpt lat="43.13679" lon="2.70038">
        <ele>71</ele>
        <time>2022-06-20T13:13:51Z</time>
      </trkpt>
      <trkpt lat="43.13669" lon="2.70043">
        <ele>71</ele>
        <time>2022-06-20T13:14:05Z</time>
      </trkpt>
      <trkpt lat="43.1364" lon="2.70051">
        <ele>69</ele>
        <time>2022-06-20T13:14:45Z</time>
      </trkpt>
      <trkpt lat="43.13619" lon="2.70051">
        <ele>69</ele>
        <time>2022-06-20T13:15:13Z</time>
      </trkpt>
      <trkpt lat="43.13608" lon="2.70044">
        <ele>69</ele>
        <time>2022-06-20T13:15:29Z</time>
      </trkpt>
      <trkpt lat="43.13597" lon="2.70033">
        <ele>70</ele>
        <time>2022-06-20T13:15:47Z</time>
      </trkpt>
      <trkpt lat="43.13583" lon="2.70017">
        <ele>71</ele>
        <time>2022-06-20T13:16:11Z</time>
      </trkpt>
      <trkpt lat="43.13574" lon="2.69999">
        <ele>71</ele>
        <time>2022-06-20T13:16:33Z</time>
      </trkpt>
      <trkpt lat="43.13559" lon="2.69998">
        <ele>69</ele>
        <time>2022-06-20T13:16:53Z</time>
      </trkpt>
      <trkpt lat="43.13546" lon="2.69996">
        <ele>68</ele>
        <time>2022-06-20T13:17:10Z</time>
      </trkpt>
      <trkpt lat="43.13539" lon="2.70001">
        <ele>67</ele>
        <time>2022-06-20T13:17:21Z</time>
      </trkpt>
      <trkpt lat="43.13469" lon="2.70041">
        <ele>63</ele>
        <time>2022-06-20T13:19:02Z</time>
      </trkpt>
      <trkpt lat="43.13399" lon="2.70079">
        <ele>63</ele>
        <time>2022-06-20T13:20:42Z</time>
      </trkpt>
      <trkpt lat="43.13387" lon="2.70139">
        <ele>63</ele>
        <time>2022-06-20T13:21:43Z</time>
      </trkpt>
      <trkpt lat="43.13376" lon="2.7022">
        <ele>63</ele>
        <time>2022-06-20T13:23:03Z</time>
      </trkpt>
      <trkpt lat="43.1337" lon="2.70241">
        <ele>63</ele>
        <time>2022-06-20T13:23:25Z</time>
      </trkpt>
      <trkpt lat="43.13338" lon="2.70291">
        <ele>63</ele>
        <time>2022-06-20T13:24:30Z</time>
      </trkpt>
      <trkpt lat="43.13308" lon="2.70347">
        <ele>62</ele>
        <time>2022-06-20T13:25:38Z</time>
      </trkpt>
      <trkpt lat="43.13332" lon="2.70367">
        <ele>63</ele>
        <time>2022-06-20T13:26:15Z</time>
      </trkpt>
      <trkpt lat="43.13335" lon="2.70375">
        <ele>63</ele>
        <time>2022-06-20T13:26:24Z</time>
      </trkpt>
      <trkpt lat="43.1334" lon="2.70582">
        <ele>61</ele>
        <time>2022-06-20T13:29:45Z</time>
      </trkpt>
      <trkpt lat="43.13339" lon="2.70593">
        <ele>61</ele>
        <time>2022-06-20T13:29:56Z</time>
      </trkpt>
      <trkpt lat="43.13322" lon="2.70621">
        <ele>61</ele>
        <time>2022-06-20T13:30:32Z</time>
      </trkpt>
      <trkpt lat="43.13318" lon="2.70631">
        <ele>61</ele>
        <time>2022-06-20T13:30:43Z</time>
      </trkpt>
      <trkpt lat="43.13324" lon="2.70668">
        <ele>60</ele>
        <time>2022-06-20T13:31:20Z</time>
      </trkpt>
      <trkpt lat="43.13324" lon="2.70688">
        <ele>61</ele>
        <time>2022-06-20T13:31:39Z</time>
      </trkpt>
      <trkpt lat="43.13322" lon="2.70706">
        <ele>61</ele>
        <time>2022-06-20T13:31:57Z</time>
      </trkpt>
      <trkpt lat="43.13312" lon="2.70727">
        <ele>62</ele>
        <time>2022-06-20T13:32:21Z</time>
      </trkpt>
      <trkpt lat="43.13307" lon="2.70751">
        <ele>62</ele>
        <time>2022-06-20T13:32:46Z</time>
      </trkpt>
      <trkpt lat="43.13307" lon="2.70765">
        <ele>62</ele>
        <time>2022-06-20T13:32:59Z</time>
      </trkpt>
      <trkpt lat="43.13311" lon="2.70784">
        <ele>62</ele>
        <time>2022-06-20T13:33:19Z</time>
      </trkpt>
      <trkpt lat="43.13324" lon="2.70816">
        <ele>62</ele>
        <time>2022-06-20T13:33:54Z</time>
      </trkpt>
      <trkpt lat="43.13424" lon="2.70974">
        <ele>64</ele>
        <time>2022-06-20T13:37:18Z</time>
      </trkpt>
      <trkpt lat="43.13422" lon="2.70985">
        <ele>64</ele>
        <time>2022-06-20T13:37:29Z</time>
      </trkpt>
      <trkpt lat="43.13404" lon="2.71015">
        <ele>65</ele>
        <time>2022-06-20T13:38:07Z</time>
      </trkpt>
      <trkpt lat="43.13395" lon="2.71026">
        <ele>65</ele>
        <time>2022-06-20T13:38:23Z</time>
      </trkpt>
      <trkpt lat="43.13387" lon="2.71032">
        <ele>66</ele>
        <time>2022-06-20T13:38:35Z</time>
      </trkpt>
      <trkpt lat="43.13392" lon="2.71037">
        <ele>66</ele>
        <time>2022-06-20T13:38:43Z</time>
      </trkpt>
      <trkpt lat="43.13401" lon="2.71039">
        <ele>65</ele>
        <time>2022-06-20T13:38:55Z</time>
      </trkpt>
      <trkpt lat="43.13453" lon="2.71069">
        <ele>64</ele>
        <time>2022-06-20T13:40:11Z</time>
      </trkpt>
      <trkpt lat="43.13473" lon="2.71099">
        <ele>64</ele>
        <time>2022-06-20T13:40:50Z</time>
      </trkpt>
      <trkpt lat="43.13495" lon="2.71117">
        <ele>64</ele>
        <time>2022-06-20T13:41:25Z</time>
      </trkpt>
      <trkpt lat="43.13515" lon="2.71123">
        <ele>64</ele>
        <time>2022-06-20T13:41:52Z</time>
      </trkpt>
      <trkpt lat="43.13524" lon="2.71134">
        <ele>64</ele>
        <time>2022-06-20T13:42:08Z</time>
      </trkpt>
      <trkpt lat="43.13557" lon="2.71198">
        <ele>65</ele>
        <time>2022-06-20T13:43:24Z</time>
      </trkpt>
      <trkpt lat="43.13579" lon="2.71247">
        <ele>66</ele>
        <time>2022-06-20T13:44:20Z</time>
      </trkpt>
      <trkpt lat="43.1358" lon="2.71265">
        <ele>66</ele>
        <time>2022-06-20T13:44:38Z</time>
      </trkpt>
      <trkpt lat="43.13602" lon="2.71318">
        <ele>67</ele>
        <time>2022-06-20T13:45:37Z</time>
      </trkpt>
      <trkpt lat="43.13617" lon="2.7134">
        <ele>67</ele>
        <time>2022-06-20T13:46:07Z</time>
      </trkpt>
      <trkpt lat="43.13659" lon="2.71391">
        <ele>68</ele>
        <time>2022-06-20T13:47:21Z</time>
      </trkpt>
      <trkpt lat="43.13667" lon="2.71399">
        <ele>68</ele>
        <time>2022-06-20T13:47:35Z</time>
      </trkpt>
      <trkpt lat="43.13754" lon="2.71456">
        <ele>68</ele>
        <time>2022-06-20T13:49:43Z</time>
      </trkpt>
      <trkpt lat="43.13774" lon="2.71465">
        <ele>68</ele>
        <time>2022-06-20T13:50:11Z</time>
      </trkpt>
      <trkpt lat="43.13797" lon="2.71462">
        <ele>67</ele>
        <time>2022-06-20T13:50:42Z</time>
      </trkpt>
      <trkpt lat="43.13815" lon="2.71465">
        <ele>67</ele>
        <time>2022-06-20T13:51:06Z</time>
      </trkpt>
      <trkpt lat="43.13848" lon="2.71478">
        <ele>66</ele>
        <time>2022-06-20T13:51:52Z</time>
      </trkpt>
      <trkpt lat="43.13878" lon="2.71496">
        <ele>66</ele>
        <time>2022-06-20T13:52:36Z</time>
      </trkpt>
      <trkpt lat="43.13896" lon="2.71513">
        <ele>66</ele>
        <time>2022-06-20T13:53:05Z</time>
      </trkpt>
      <trkpt lat="43.13888" lon="2.71525">
        <ele>68</ele>
        <time>2022-06-20T13:53:21Z</time>
      </trkpt>
      <trkpt lat="43.13882" lon="2.71543">
        <ele>70</ele>
        <time>2022-06-20T13:53:40Z</time>
      </trkpt>
      <trkpt lat="43.13878" lon="2.71549">
        <ele>71</ele>
        <time>2022-06-20T13:53:48Z</time>
      </trkpt>
      <trkpt lat="43.13873" lon="2.71553">
        <ele>72</ele>
        <time>2022-06-20T13:53:56Z</time>
      </trkpt>
      <trkpt lat="43.13789" lon="2.7156">
        <ele>77</ele>
        <time>2022-06-20T13:55:48Z</time>
      </trkpt>
      <trkpt lat="43.13769" lon="2.71566">
        <ele>79</ele>
        <time>2022-06-20T13:56:15Z</time>
      </trkpt>
      <trkpt lat="43.13747" lon="2.71562">
        <ele>79</ele>
        <time>2022-06-20T13:56:45Z</time>
      </trkpt>
      <trkpt lat="43.13715" lon="2.7156">
        <ele>79</ele>
        <time>2022-06-20T13:57:28Z</time>
      </trkpt>
      <trkpt lat="43.13705" lon="2.71562">
        <ele>80</ele>
        <time>2022-06-20T13:57:41Z</time>
      </trkpt>
      <trkpt lat="43.13691" lon="2.71572">
        <ele>81</ele>
        <time>2022-06-20T13:58:02Z</time>
      </trkpt>
      <trkpt lat="43.13687" lon="2.71579">
        <ele>82</ele>
        <time>2022-06-20T13:58:11Z</time>
      </trkpt>
      <trkpt lat="43.13683" lon="2.71589">
        <ele>83</ele>
        <time>2022-06-20T13:58:22Z</time>
      </trkpt>
      <trkpt lat="43.13673" lon="2.717">
        <ele>86</ele>
        <time>2022-06-20T14:00:11Z</time>
      </trkpt>
      <trkpt lat="43.13611" lon="2.71862">
        <ele>88</ele>
        <time>2022-06-20T14:03:09Z</time>
      </trkpt>
      <trkpt lat="43.13595" lon="2.71952">
        <ele>87</ele>
        <time>2022-06-20T14:04:39Z</time>
      </trkpt>
      <trkpt lat="43.13582" lon="2.72">
        <ele>87</ele>
        <time>2022-06-20T14:05:29Z</time>
      </trkpt>
      <trkpt lat="43.13566" lon="2.72045">
        <ele>88</ele>
        <time>2022-06-20T14:06:18Z</time>
      </trkpt>
      <trkpt lat="43.13543" lon="2.72216">
        <ele>88</ele>
        <time>2022-06-20T14:09:07Z</time>
      </trkpt>
      <trkpt lat="43.13543" lon="2.72237">
        <ele>88</ele>
        <time>2022-06-20T14:09:28Z</time>
      </trkpt>
      <trkpt lat="43.1355" lon="2.72308">
        <ele>86</ele>
        <time>2022-06-20T14:10:38Z</time>
      </trkpt>
      <trkpt lat="43.1355" lon="2.7233">
        <ele>86</ele>
        <time>2022-06-20T14:10:59Z</time>
      </trkpt>
      <trkpt lat="43.13547" lon="2.72362">
        <ele>86</ele>
        <time>2022-06-20T14:11:30Z</time>
      </trkpt>
      <trkpt lat="43.13534" lon="2.72462">
        <ele>85</ele>
        <time>2022-06-20T14:13:09Z</time>
      </trkpt>
      <trkpt lat="43.1353" lon="2.72559">
        <ele>86</ele>
        <time>2022-06-20T14:14:44Z</time>
      </trkpt>
      <trkpt lat="43.13531" lon="2.72621">
        <ele>86</ele>
        <time>2022-06-20T14:15:44Z</time>
      </trkpt>
      <trkpt lat="43.13529" lon="2.72651">
        <ele>86</ele>
        <time>2022-06-20T14:16:14Z</time>
      </trkpt>
      <trkpt lat="43.13525" lon="2.72658">
        <ele>86</ele>
        <time>2022-06-20T14:16:22Z</time>
      </trkpt>
      <trkpt lat="43.13518" lon="2.72662">
        <ele>87</ele>
        <time>2022-06-20T14:16:32Z</time>
      </trkpt>
      <trkpt lat="43.13493" lon="2.72659">
        <ele>87</ele>
        <time>2022-06-20T14:17:06Z</time>
      </trkpt>
      <trkpt lat="43.13487" lon="2.72662">
        <ele>88</ele>
        <time>2022-06-20T14:17:14Z</time>
      </trkpt>
      <trkpt lat="43.13482" lon="2.72667">
        <ele>88</ele>
        <time>2022-06-20T14:17:23Z</time>
      </trkpt>
      <trkpt lat="43.13473" lon="2.72711">
        <ele>88</ele>
        <time>2022-06-20T14:18:07Z</time>
      </trkpt>
      <trkpt lat="43.13467" lon="2.7273">
        <ele>88</ele>
        <time>2022-06-20T14:18:27Z</time>
      </trkpt>
      <trkpt lat="43.13459" lon="2.7274">
        <ele>89</ele>
        <time>2022-06-20T14:18:42Z</time>
      </trkpt>
      <trkpt lat="43.13446" lon="2.7275">
        <ele>89</ele>
        <time>2022-06-20T14:19:02Z</time>
      </trkpt>
      <trkpt lat="43.13409" lon="2.72772">
        <ele>90</ele>
        <time>2022-06-20T14:19:56Z</time>
      </trkpt>
      <trkpt lat="43.13367" lon="2.72788">
        <ele>91</ele>
        <time>2022-06-20T14:20:54Z</time>
      </trkpt>
      <trkpt lat="43.13323" lon="2.72797">
        <ele>94</ele>
        <time>2022-06-20T14:21:53Z</time>
      </trkpt>
      <trkpt lat="43.13313" lon="2.72804">
        <ele>95</ele>
        <time>2022-06-20T14:22:08Z</time>
      </trkpt>
      <trkpt lat="43.13307" lon="2.72813">
        <ele>96</ele>
        <time>2022-06-20T14:22:20Z</time>
      </trkpt>
      <trkpt lat="43.13304" lon="2.72825">
        <ele>96</ele>
        <time>2022-06-20T14:22:32Z</time>
      </trkpt>
      <trkpt lat="43.13302" lon="2.7293">
        <ele>93</ele>
        <time>2022-06-20T14:24:15Z</time>
      </trkpt>
      <trkpt lat="43.13356" lon="2.73166">
        <ele>90</ele>
        <time>2022-06-20T14:28:15Z</time>
      </trkpt>
      <trkpt lat="43.13378" lon="2.73218">
        <ele>90</ele>
        <time>2022-06-20T14:29:14Z</time>
      </trkpt>
      <trkpt lat="43.13479" lon="2.73147">
        <ele>91</ele>
        <time>2022-06-20T14:31:45Z</time>
      </trkpt>
      <trkpt lat="43.13478" lon="2.73151">
        <ele>91</ele>
        <time>2022-06-20T14:31:50Z</time>
      </trkpt>
      <trkpt lat="43.13449" lon="2.73202">
        <ele>91</ele>
        <time>2022-06-20T14:32:53Z</time>
      </trkpt>
      <trkpt lat="43.13443" lon="2.73224">
        <ele>92</ele>
        <time>2022-06-20T14:33:15Z</time>
      </trkpt>
      <trkpt lat="43.13441" lon="2.73238">
        <ele>92</ele>
        <time>2022-06-20T14:33:29Z</time>
      </trkpt>
      <trkpt lat="43.13442" lon="2.73259">
        <ele>93</ele>
        <time>2022-06-20T14:33:50Z</time>
      </trkpt>
      <trkpt lat="43.13456" lon="2.73339">
        <ele>94</ele>
        <time>2022-06-20T14:35:10Z</time>
      </trkpt>
      <trkpt lat="43.13461" lon="2.73378">
        <ele>94</ele>
        <time>2022-06-20T14:35:48Z</time>
      </trkpt>
      <trkpt lat="43.13462" lon="2.73417">
        <ele>95</ele>
        <time>2022-06-20T14:36:26Z</time>
      </trkpt>
      <trkpt lat="43.13465" lon="2.73434">
        <ele>95</ele>
        <time>2022-06-20T14:36:44Z</time>
      </trkpt>
      <trkpt lat="43.1347" lon="2.73451">
        <ele>95</ele>
        <time>2022-06-20T14:37:01Z</time>
      </trkpt>
      <trkpt lat="43.13501" lon="2.73505">
        <ele>94</ele>
        <time>2022-06-20T14:38:08Z</time>
      </trkpt>
      <trkpt lat="43.13508" lon="2.73527">
        <ele>95</ele>
        <time>2022-06-20T14:38:32Z</time>
      </trkpt>
      <trkpt lat="43.13567" lon="2.73647">
        <ele>95</ele>
        <time>2022-06-20T14:40:53Z</time>
      </trkpt>
      <trkpt lat="43.13569" lon="2.73661">
        <ele>95</ele>
        <time>2022-06-20T14:41:06Z</time>
      </trkpt>
      <trkpt lat="43.13566" lon="2.73675">
        <ele>95</ele>
        <time>2022-06-20T14:41:21Z</time>
      </trkpt>
      <trkpt lat="43.13529" lon="2.73752">
        <ele>94</ele>
        <time>2022-06-20T14:42:50Z</time>
      </trkpt>
      <trkpt lat="43.13477" lon="2.73896">
        <ele>92</ele>
        <time>2022-06-20T14:45:27Z</time>
      </trkpt>
      <trkpt lat="43.13401" lon="2.74054">
        <ele>95</ele>
        <time>2022-06-20T14:48:31Z</time>
      </trkpt>
      <trkpt lat="43.13396" lon="2.7407">
        <ele>96</ele>
        <time>2022-06-20T14:48:48Z</time>
      </trkpt>
      <trkpt lat="43.13393" lon="2.74083">
        <ele>96</ele>
        <time>2022-06-20T14:49:01Z</time>
      </trkpt>
      <trkpt lat="43.1339" lon="2.74142">
        <ele>96</ele>
        <time>2022-06-20T14:49:59Z</time>
      </trkpt>
      <trkpt lat="43.13382" lon="2.74193">
        <ele>95</ele>
        <time>2022-06-20T14:50:50Z</time>
      </trkpt>
      <trkpt lat="43.13372" lon="2.74285">
        <ele>94</ele>
        <time>2022-06-20T14:52:20Z</time>
      </trkpt>
      <trkpt lat="43.13354" lon="2.74487">
        <ele>95</ele>
        <time>2022-06-20T14:55:39Z</time>
      </trkpt>
      <trkpt lat="43.13346" lon="2.74544">
        <ele>95</ele>
        <time>2022-06-20T14:56:35Z</time>
      </trkpt>
      <trkpt lat="43.13328" lon="2.74627">
        <ele>96</ele>
        <time>2022-06-20T14:57:59Z</time>
      </trkpt>
      <trkpt lat="43.13296" lon="2.74742">
        <ele>98</ele>
        <time>2022-06-20T14:59:59Z</time>
      </trkpt>
      <trkpt lat="43.13292" lon="2.74725">
        <ele>99</ele>
        <time>2022-06-20T15:00:17Z</time>
      </trkpt>
      <trkpt lat="43.13286" lon="2.74761">
        <ele>99</ele>
        <time>2022-06-20T15:00:53Z</time>
      </trkpt>
      <trkpt lat="43.13281" lon="2.74804">
        <ele>100</ele>
        <time>2022-06-20T15:01:35Z</time>
      </trkpt>
      <trkpt lat="43.1328" lon="2.74828">
        <ele>100</ele>
        <time>2022-06-20T15:01:58Z</time>
      </trkpt>
      <trkpt lat="43.13271" lon="2.74875">
        <ele>101</ele>
        <time>2022-06-20T15:02:46Z</time>
      </trkpt>
      <trkpt lat="43.13257" lon="2.74939">
        <ele>100</ele>
        <time>2022-06-20T15:03:51Z</time>
      </trkpt>
      <trkpt lat="43.13238" lon="2.74971">
        <ele>101</ele>
        <time>2022-06-20T15:04:31Z</time>
      </trkpt>
      <trkpt lat="43.13232" lon="2.74988">
        <ele>102</ele>
        <time>2022-06-20T15:04:49Z</time>
      </trkpt>
      <trkpt lat="43.13221" lon="2.75033">
        <ele>102</ele>
        <time>2022-06-20T15:05:36Z</time>
      </trkpt>
      <trkpt lat="43.13211" lon="2.75048">
        <ele>103</ele>
        <time>2022-06-20T15:05:55Z</time>
      </trkpt>
      <trkpt lat="43.13195" lon="2.75067">
        <ele>104</ele>
        <time>2022-06-20T15:06:24Z</time>
      </trkpt>
      <trkpt lat="43.1319" lon="2.75092">
        <ele>104</ele>
        <time>2022-06-20T15:06:49Z</time>
      </trkpt>
      <trkpt lat="43.13187" lon="2.7512">
        <ele>104</ele>
        <time>2022-06-20T15:07:16Z</time>
      </trkpt>
      <trkpt lat="43.13155" lon="2.75195">
        <ele>108</ele>
        <time>2022-06-20T15:08:41Z</time>
      </trkpt>
      <trkpt lat="43.13144" lon="2.75238">
        <ele>109</ele>
        <time>2022-06-20T15:09:25Z</time>
      </trkpt>
      <trkpt lat="43.13137" lon="2.75256">
        <ele>109</ele>
        <time>2022-06-20T15:09:45Z</time>
      </trkpt>
      <trkpt lat="43.13132" lon="2.75264">
        <ele>110</ele>
        <time>2022-06-20T15:09:56Z</time>
      </trkpt>
      <trkpt lat="43.13046" lon="2.75361">
        <ele>111</ele>
        <time>2022-06-20T15:12:24Z</time>
      </trkpt>
      <trkpt lat="43.13031" lon="2.75371">
        <ele>111</ele>
        <time>2022-06-20T15:12:46Z</time>
      </trkpt>
      <trkpt lat="43.13013" lon="2.75381">
        <ele>111</ele>
        <time>2022-06-20T15:13:12Z</time>
      </trkpt>
      <trkpt lat="43.12989" lon="2.75388">
        <ele>111</ele>
        <time>2022-06-20T15:13:45Z</time>
      </trkpt>
      <trkpt lat="43.12962" lon="2.75389">
        <ele>112</ele>
        <time>2022-06-20T15:14:21Z</time>
      </trkpt>
      <trkpt lat="43.12917" lon="2.7538">
        <ele>114</ele>
        <time>2022-06-20T15:15:22Z</time>
      </trkpt>
      <trkpt lat="43.12909" lon="2.75379">
        <ele>115</ele>
        <time>2022-06-20T15:15:33Z</time>
      </trkpt>
      <trkpt lat="43.12901" lon="2.75381">
        <ele>115</ele>
        <time>2022-06-20T15:15:43Z</time>
      </trkpt>
      <trkpt lat="43.12846" lon="2.75415">
        <ele>115</ele>
        <time>2022-06-20T15:17:04Z</time>
      </trkpt>
      <trkpt lat="43.12813" lon="2.75438">
        <ele>116</ele>
        <time>2022-06-20T15:17:53Z</time>
      </trkpt>
      <trkpt lat="43.1279" lon="2.75459">
        <ele>116</ele>
        <time>2022-06-20T15:18:30Z</time>
      </trkpt>
      <trkpt lat="43.12664" lon="2.75514">
        <ele>120</ele>
        <time>2022-06-20T15:21:27Z</time>
      </trkpt>
      <trkpt lat="43.12646" lon="2.75522">
        <ele>121</ele>
        <time>2022-06-20T15:21:52Z</time>
      </trkpt>
      <trkpt lat="43.12644" lon="2.75527">
        <ele>121</ele>
        <time>2022-06-20T15:21:57Z</time>
      </trkpt>
      <trkpt lat="43.12652" lon="2.75531">
        <ele>121</ele>
        <time>2022-06-20T15:22:09Z</time>
      </trkpt>
      <trkpt lat="43.12644" lon="2.75527">
        <ele>121</ele>
        <time>2022-06-20T15:22:20Z</time>
      </trkpt>
      <trkpt lat="43.12646" lon="2.75522">
        <ele>121</ele>
        <time>2022-06-20T15:22:26Z</time>
      </trkpt>
      <trkpt lat="43.12664" lon="2.75514">
        <ele>120</ele>
        <time>2022-06-20T15:22:51Z</time>
      </trkpt>
      <trkpt lat="43.1265" lon="2.75514">
        <ele>120</ele>
        <time>2022-06-20T15:23:10Z</time>
      </trkpt>
      <trkpt lat="43.1264" lon="2.75509">
        <ele>120</ele>
        <time>2022-06-20T15:23:24Z</time>
      </trkpt>
      <trkpt lat="43.12633" lon="2.75497">
        <ele>119</ele>
        <time>2022-06-20T15:23:39Z</time>
      </trkpt>
      <trkpt lat="43.12627" lon="2.75476">
        <ele>121</ele>
        <time>2022-06-20T15:24:01Z</time>
      </trkpt>
      <trkpt lat="43.126" lon="2.75417">
        <ele>122</ele>
        <time>2022-06-20T15:25:09Z</time>
      </trkpt>
      <trkpt lat="43.1258" lon="2.75396">
        <ele>122</ele>
        <time>2022-06-20T15:25:42Z</time>
      </trkpt>
      <trkpt lat="43.12532" lon="2.75358">
        <ele>126</ele>
        <time>2022-06-20T15:26:56Z</time>
      </trkpt>
      <trkpt lat="43.12484" lon="2.75334">
        <ele>128</ele>
        <time>2022-06-20T15:28:04Z</time>
      </trkpt>
      <trkpt lat="43.12469" lon="2.75308">
        <ele>130</ele>
        <time>2022-06-20T15:28:37Z</time>
      </trkpt>
      <trkpt lat="43.12459" lon="2.75273">
        <ele>132</ele>
        <time>2022-06-20T15:29:13Z</time>
      </trkpt>
      <trkpt lat="43.12462" lon="2.75218">
        <ele>134</ele>
        <time>2022-06-20T15:30:07Z</time>
      </trkpt>
      <trkpt lat="43.12467" lon="2.75184">
        <ele>135</ele>
        <time>2022-06-20T15:30:41Z</time>
      </trkpt>
      <trkpt lat="43.12477" lon="2.75183">
        <ele>135</ele>
        <time>2022-06-20T15:30:54Z</time>
      </trkpt>
      <trkpt lat="43.12512" lon="2.75208">
        <ele>134</ele>
        <time>2022-06-20T15:31:47Z</time>
      </trkpt>
      <trkpt lat="43.12519" lon="2.75206">
        <ele>134</ele>
        <time>2022-06-20T15:31:56Z</time>
      </trkpt>
      <trkpt lat="43.12522" lon="2.75202">
        <ele>135</ele>
        <time>2022-06-20T15:32:02Z</time>
      </trkpt>
      <trkpt lat="43.12535" lon="2.75134">
        <ele>140</ele>
        <time>2022-06-20T15:33:10Z</time>
      </trkpt>
      <trkpt lat="43.12521" lon="2.75099">
        <ele>144</ele>
        <time>2022-06-20T15:33:49Z</time>
      </trkpt>
      <trkpt lat="43.12531" lon="2.75026">
        <ele>151</ele>
        <time>2022-06-20T15:35:02Z</time>
      </trkpt>
      <trkpt lat="43.12534" lon="2.74951">
        <ele>157</ele>
        <time>2022-06-20T15:36:15Z</time>
      </trkpt>
      <trkpt lat="43.12508" lon="2.74923">
        <ele>161</ele>
        <time>2022-06-20T15:36:59Z</time>
      </trkpt>
      <trkpt lat="43.12474" lon="2.74917">
        <ele>161</ele>
        <time>2022-06-20T15:37:45Z</time>
      </trkpt>
      <trkpt lat="43.1247" lon="2.74887">
        <ele>163</ele>
        <time>2022-06-20T15:38:14Z</time>
      </trkpt>
      <trkpt lat="43.12462" lon="2.74865">
        <ele>165</ele>
        <time>2022-06-20T15:38:38Z</time>
      </trkpt>
      <trkpt lat="43.12418" lon="2.74782">
        <ele>171</ele>
        <time>2022-06-20T15:40:18Z</time>
      </trkpt>
      <trkpt lat="43.12414" lon="2.74767">
        <ele>172</ele>
        <time>2022-06-20T15:40:34Z</time>
      </trkpt>
      <trkpt lat="43.12433" lon="2.74794">
        <ele>170</ele>
        <time>2022-06-20T15:41:10Z</time>
      </trkpt>
      <trkpt lat="43.12455" lon="2.7482">
        <ele>168</ele>
        <time>2022-06-20T15:41:49Z</time>
      </trkpt>
      <trkpt lat="43.12482" lon="2.74825">
        <ele>168</ele>
        <time>2022-06-20T15:42:26Z</time>
      </trkpt>
      <trkpt lat="43.12508" lon="2.74803">
        <ele>169</ele>
        <time>2022-06-20T15:43:06Z</time>
      </trkpt>
      <trkpt lat="43.12574" lon="2.74681">
        <ele>170</ele>
        <time>2022-06-20T15:45:34Z</time>
      </trkpt>
      <trkpt lat="43.12583" lon="2.74659">
        <ele>169</ele>
        <time>2022-06-20T15:45:59Z</time>
      </trkpt>
      <trkpt lat="43.1258" lon="2.74636">
        <ele>168</ele>
        <time>2022-06-20T15:46:22Z</time>
      </trkpt>
      <trkpt lat="43.12558" lon="2.74612">
        <ele>170</ele>
        <time>2022-06-20T15:46:59Z</time>
      </trkpt>
      <trkpt lat="43.1255" lon="2.74595">
        <ele>170</ele>
        <time>2022-06-20T15:47:19Z</time>
      </trkpt>
      <trkpt lat="43.12548" lon="2.74569">
        <ele>170</ele>
        <time>2022-06-20T15:47:44Z</time>
      </trkpt>
      <trkpt lat="43.12552" lon="2.74546">
        <ele>170</ele>
        <time>2022-06-20T15:48:07Z</time>
      </trkpt>
      <trkpt lat="43.12569" lon="2.74508">
        <ele>167</ele>
        <time>2022-06-20T15:48:51Z</time>
      </trkpt>
      <trkpt lat="43.12579" lon="2.74479">
        <ele>164</ele>
        <time>2022-06-20T15:49:22Z</time>
      </trkpt>
      <trkpt lat="43.12599" lon="2.74452">
        <ele>160</ele>
        <time>2022-06-20T15:49:59Z</time>
      </trkpt>
      <trkpt lat="43.12599" lon="2.74402">
        <ele>157</ele>
        <time>2022-06-20T15:50:48Z</time>
      </trkpt>
      <trkpt lat="43.12581" lon="2.7434">
        <ele>151</ele>
        <time>2022-06-20T15:51:53Z</time>
      </trkpt>
      <trkpt lat="43.12559" lon="2.74323">
        <ele>154</ele>
        <time>2022-06-20T15:52:27Z</time>
      </trkpt>
      <trkpt lat="43.12519" lon="2.74317">
        <ele>162</ele>
        <time>2022-06-20T15:53:20Z</time>
      </trkpt>
      <trkpt lat="43.12515" lon="2.74306">
        <ele>163</ele>
        <time>2022-06-20T15:53:32Z</time>
      </trkpt>
      <trkpt lat="43.1252" lon="2.74281">
        <ele>161</ele>
        <time>2022-06-20T15:53:58Z</time>
      </trkpt>
      <trkpt lat="43.12556" lon="2.7423">
        <ele>150</ele>
        <time>2022-06-20T15:55:07Z</time>
      </trkpt>
      <trkpt lat="43.12559" lon="2.74218">
        <ele>148</ele>
        <time>2022-06-20T15:55:19Z</time>
      </trkpt>
      <trkpt lat="43.12558" lon="2.74181">
        <ele>147</ele>
        <time>2022-06-20T15:55:55Z</time>
      </trkpt>
      <trkpt lat="43.12554" lon="2.74148">
        <ele>144</ele>
        <time>2022-06-20T15:56:28Z</time>
      </trkpt>
      <trkpt lat="43.12557" lon="2.74095">
        <ele>136</ele>
        <time>2022-06-20T15:57:20Z</time>
      </trkpt>
      <trkpt lat="43.12553" lon="2.74054">
        <ele>132</ele>
        <time>2022-06-20T15:58:00Z</time>
      </trkpt>
      <trkpt lat="43.12544" lon="2.74045">
        <ele>132</ele>
        <time>2022-06-20T15:58:15Z</time>
      </trkpt>
      <trkpt lat="43.1254" lon="2.74045">
        <ele>132</ele>
        <time>2022-06-20T15:58:20Z</time>
      </trkpt>
      <trkpt lat="43.12529" lon="2.74051">
        <ele>134</ele>
        <time>2022-06-20T15:58:36Z</time>
      </trkpt>
      <trkpt lat="43.12512" lon="2.74065">
        <ele>137</ele>
        <time>2022-06-20T15:59:02Z</time>
      </trkpt>
      <trkpt lat="43.12498" lon="2.74071">
        <ele>139</ele>
        <time>2022-06-20T15:59:22Z</time>
      </trkpt>
      <trkpt lat="43.12484" lon="2.74073">
        <ele>140</ele>
        <time>2022-06-20T15:59:41Z</time>
      </trkpt>
      <trkpt lat="43.12447" lon="2.74069">
        <ele>144</ele>
        <time>2022-06-20T16:00:30Z</time>
      </trkpt>
      <trkpt lat="43.12444" lon="2.74065">
        <ele>144</ele>
        <time>2022-06-20T16:00:36Z</time>
      </trkpt>
      <trkpt lat="43.12446" lon="2.74059">
        <ele>143</ele>
        <time>2022-06-20T16:00:42Z</time>
      </trkpt>
      <trkpt lat="43.12465" lon="2.74058">
        <ele>141</ele>
        <time>2022-06-20T16:01:08Z</time>
      </trkpt>
      <trkpt lat="43.12481" lon="2.74053">
        <ele>139</ele>
        <time>2022-06-20T16:01:29Z</time>
      </trkpt>
      <trkpt lat="43.12496" lon="2.74039">
        <ele>136</ele>
        <time>2022-06-20T16:01:54Z</time>
      </trkpt>
      <trkpt lat="43.12507" lon="2.74026">
        <ele>133</ele>
        <time>2022-06-20T16:02:13Z</time>
      </trkpt>
      <trkpt lat="43.12513" lon="2.74011">
        <ele>131</ele>
        <time>2022-06-20T16:02:30Z</time>
      </trkpt>
      <trkpt lat="43.12521" lon="2.73978">
        <ele>129</ele>
        <time>2022-06-20T16:03:04Z</time>
      </trkpt>
      <trkpt lat="43.12535" lon="2.73937">
        <ele>127</ele>
        <time>2022-06-20T16:03:48Z</time>
      </trkpt>
      <trkpt lat="43.12537" lon="2.73926">
        <ele>126</ele>
        <time>2022-06-20T16:03:59Z</time>
      </trkpt>
      <trkpt lat="43.12536" lon="2.73908">
        <ele>125</ele>
        <time>2022-06-20T16:04:16Z</time>
      </trkpt>
      <trkpt lat="43.12538" lon="2.73899">
        <ele>124</ele>
        <time>2022-06-20T16:04:25Z</time>
      </trkpt>
      <trkpt lat="43.12545" lon="2.7389">
        <ele>123</ele>
        <time>2022-06-20T16:04:38Z</time>
      </trkpt>
      <trkpt lat="43.12562" lon="2.73884">
        <ele>120</ele>
        <time>2022-06-20T16:05:02Z</time>
      </trkpt>
      <trkpt lat="43.12568" lon="2.73876">
        <ele>119</ele>
        <time>2022-06-20T16:05:13Z</time>
      </trkpt>
      <trkpt lat="43.12576" lon="2.73857">
        <ele>117</ele>
        <time>2022-06-20T16:05:34Z</time>
      </trkpt>
      <trkpt lat="43.12578" lon="2.73845">
        <ele>116</ele>
        <time>2022-06-20T16:05:46Z</time>
      </trkpt>
      <trkpt lat="43.12577" lon="2.73834">
        <ele>116</ele>
        <time>2022-06-20T16:05:57Z</time>
      </trkpt>
      <trkpt lat="43.12581" lon="2.73785">
        <ele>115</ele>
        <time>2022-06-20T16:06:45Z</time>
      </trkpt>
      <trkpt lat="43.12584" lon="2.73773">
        <ele>114</ele>
        <time>2022-06-20T16:06:57Z</time>
      </trkpt>
      <trkpt lat="43.12596" lon="2.7375">
        <ele>114</ele>
        <time>2022-06-20T16:07:25Z</time>
      </trkpt>
      <trkpt lat="43.1262" lon="2.73685">
        <ele>114</ele>
        <time>2022-06-20T16:08:36Z</time>
      </trkpt>
      <trkpt lat="43.12627" lon="2.73654">
        <ele>114</ele>
        <time>2022-06-20T16:09:08Z</time>
      </trkpt>
      <trkpt lat="43.12582" lon="2.73711">
        <ele>116</ele>
        <time>2022-06-20T16:10:29Z</time>
      </trkpt>
      <trkpt lat="43.12569" lon="2.73723">
        <ele>117</ele>
        <time>2022-06-20T16:10:50Z</time>
      </trkpt>
      <trkpt lat="43.12547" lon="2.73737">
        <ele>118</ele>
        <time>2022-06-20T16:11:23Z</time>
      </trkpt>
      <trkpt lat="43.12496" lon="2.73756">
        <ele>122</ele>
        <time>2022-06-20T16:12:33Z</time>
      </trkpt>
      <trkpt lat="43.12463" lon="2.73758">
        <ele>125</ele>
        <time>2022-06-20T16:13:17Z</time>
      </trkpt>
      <trkpt lat="43.12446" lon="2.73753">
        <ele>126</ele>
        <time>2022-06-20T16:13:40Z</time>
      </trkpt>
      <trkpt lat="43.12429" lon="2.73742">
        <ele>127</ele>
        <time>2022-06-20T16:14:05Z</time>
      </trkpt>
      <trkpt lat="43.12414" lon="2.73727">
        <ele>129</ele>
        <time>2022-06-20T16:14:30Z</time>
      </trkpt>
      <trkpt lat="43.124" lon="2.73708">
        <ele>132</ele>
        <time>2022-06-20T16:14:57Z</time>
      </trkpt>
      <trkpt lat="43.12386" lon="2.73684">
        <ele>135</ele>
        <time>2022-06-20T16:15:26Z</time>
      </trkpt>
      <trkpt lat="43.12379" lon="2.73664">
        <ele>136</ele>
        <time>2022-06-20T16:15:48Z</time>
      </trkpt>
      <trkpt lat="43.12366" lon="2.7362">
        <ele>138</ele>
        <time>2022-06-20T16:16:34Z</time>
      </trkpt>
      <trkpt lat="43.12361" lon="2.73573">
        <ele>138</ele>
        <time>2022-06-20T16:17:21Z</time>
      </trkpt>
      <trkpt lat="43.12367" lon="2.73567">
        <ele>138</ele>
        <time>2022-06-20T16:17:30Z</time>
      </trkpt>
      <trkpt lat="43.12377" lon="2.73529">
        <ele>138</ele>
        <time>2022-06-20T16:18:10Z</time>
      </trkpt>
      <trkpt lat="43.12377" lon="2.73519">
        <ele>139</ele>
        <time>2022-06-20T16:18:20Z</time>
      </trkpt>
      <trkpt lat="43.1236" lon="2.73461">
        <ele>139</ele>
        <time>2022-06-20T16:19:20Z</time>
      </trkpt>
      <trkpt lat="43.12359" lon="2.73453">
        <ele>139</ele>
        <time>2022-06-20T16:19:28Z</time>
      </trkpt>
      <trkpt lat="43.12362" lon="2.73447">
        <ele>139</ele>
        <time>2022-06-20T16:19:35Z</time>
      </trkpt>
      <trkpt lat="43.12371" lon="2.73438">
        <ele>140</ele>
        <time>2022-06-20T16:19:50Z</time>
      </trkpt>
      <trkpt lat="43.12373" lon="2.73433">
        <ele>141</ele>
        <time>2022-06-20T16:19:56Z</time>
      </trkpt>
      <trkpt lat="43.12374" lon="2.73424">
        <ele>141</ele>
        <time>2022-06-20T16:20:05Z</time>
      </trkpt>
      <trkpt lat="43.1237" lon="2.73402">
        <ele>141</ele>
        <time>2022-06-20T16:20:27Z</time>
      </trkpt>
      <trkpt lat="43.12353" lon="2.73347">
        <ele>142</ele>
        <time>2022-06-20T16:21:25Z</time>
      </trkpt>
      <trkpt lat="43.12344" lon="2.73309">
        <ele>143</ele>
        <time>2022-06-20T16:22:04Z</time>
      </trkpt>
      <trkpt lat="43.1234" lon="2.73305">
        <ele>143</ele>
        <time>2022-06-20T16:22:11Z</time>
      </trkpt>
      <trkpt lat="43.12329" lon="2.73302">
        <ele>143</ele>
        <time>2022-06-20T16:22:25Z</time>
      </trkpt>
      <trkpt lat="43.12325" lon="2.73297">
        <ele>143</ele>
        <time>2022-06-20T16:22:33Z</time>
      </trkpt>
      <trkpt lat="43.12324" lon="2.7329">
        <ele>143</ele>
        <time>2022-06-20T16:22:40Z</time>
      </trkpt>
      <trkpt lat="43.12309" lon="2.7319">
        <ele>145</ele>
        <time>2022-06-20T16:24:19Z</time>
      </trkpt>
      <trkpt lat="43.12297" lon="2.73111">
        <ele>149</ele>
        <time>2022-06-20T16:25:38Z</time>
      </trkpt>
      <trkpt lat="43.12294" lon="2.73103">
        <ele>149</ele>
        <time>2022-06-20T16:25:46Z</time>
      </trkpt>
      <trkpt lat="43.12335" lon="2.7309">
        <ele>148</ele>
        <time>2022-06-20T16:26:43Z</time>
      </trkpt>
      <trkpt lat="43.12334" lon="2.73074">
        <ele>149</ele>
        <time>2022-06-20T16:26:58Z</time>
      </trkpt>
      <trkpt lat="43.12336" lon="2.73062">
        <ele>149</ele>
        <time>2022-06-20T16:27:10Z</time>
      </trkpt>
      <trkpt lat="43.12366" lon="2.72976">
        <ele>152</ele>
        <time>2022-06-20T16:28:43Z</time>
      </trkpt>
      <trkpt lat="43.1239" lon="2.72915">
        <ele>156</ele>
        <time>2022-06-20T16:29:51Z</time>
      </trkpt>
      <trkpt lat="43.1239" lon="2.7291">
        <ele>156</ele>
        <time>2022-06-20T16:29:55Z</time>
      </trkpt>
      <trkpt lat="43.12371" lon="2.72887">
        <ele>159</ele>
        <time>2022-06-20T16:30:29Z</time>
      </trkpt>
      <trkpt lat="43.12307" lon="2.7278">
        <ele>161</ele>
        <time>2022-06-20T16:32:44Z</time>
      </trkpt>
      <trkpt lat="43.12304" lon="2.7278">
        <ele>160</ele>
        <time>2022-06-20T16:32:48Z</time>
      </trkpt>
      <trkpt lat="43.12287" lon="2.72787">
        <ele>160</ele>
        <time>2022-06-20T16:33:12Z</time>
      </trkpt>
      <trkpt lat="43.12274" lon="2.72796">
        <ele>159</ele>
        <time>2022-06-20T16:33:31Z</time>
      </trkpt>
      <trkpt lat="43.12265" lon="2.72799">
        <ele>159</ele>
        <time>2022-06-20T16:33:43Z</time>
      </trkpt>
      <trkpt lat="43.1226" lon="2.72803">
        <ele>159</ele>
        <time>2022-06-20T16:33:51Z</time>
      </trkpt>
      <trkpt lat="43.12225" lon="2.7285">
        <ele>159</ele>
        <time>2022-06-20T16:34:57Z</time>
      </trkpt>
      <trkpt lat="43.12221" lon="2.72852">
        <ele>159</ele>
        <time>2022-06-20T16:35:02Z</time>
      </trkpt>
      <trkpt lat="43.12213" lon="2.72852">
        <ele>158</ele>
        <time>2022-06-20T16:35:13Z</time>
      </trkpt>
      <trkpt lat="43.12311" lon="2.7273">
        <ele>158</ele>
        <time>2022-06-20T16:38:10Z</time>
      </trkpt>
      <trkpt lat="43.12321" lon="2.72714">
        <ele>158</ele>
        <time>2022-06-20T16:38:30Z</time>
      </trkpt>
      <trkpt lat="43.12352" lon="2.72651">
        <ele>152</ele>
        <time>2022-06-20T16:39:44Z</time>
      </trkpt>
      <trkpt lat="43.12363" lon="2.72631">
        <ele>149</ele>
        <time>2022-06-20T16:40:09Z</time>
      </trkpt>
      <trkpt lat="43.12374" lon="2.72618">
        <ele>147</ele>
        <time>2022-06-20T16:40:28Z</time>
      </trkpt>
      <trkpt lat="43.12387" lon="2.72611">
        <ele>146</ele>
        <time>2022-06-20T16:40:47Z</time>
      </trkpt>
      <trkpt lat="43.12457" lon="2.72605">
        <ele>143</ele>
        <time>2022-06-20T16:42:20Z</time>
      </trkpt>
      <trkpt lat="43.12462" lon="2.72601">
        <ele>143</ele>
        <time>2022-06-20T16:42:28Z</time>
      </trkpt>
      <trkpt lat="43.12496" lon="2.72562">
        <ele>138</ele>
        <time>2022-06-20T16:43:27Z</time>
      </trkpt>
      <trkpt lat="43.12502" lon="2.72552">
        <ele>138</ele>
        <time>2022-06-20T16:43:40Z</time>
      </trkpt>
      <trkpt lat="43.12489" lon="2.72543">
        <ele>137</ele>
        <time>2022-06-20T16:43:59Z</time>
      </trkpt>
      <trkpt lat="43.12486" lon="2.72538">
        <ele>137</ele>
        <time>2022-06-20T16:44:05Z</time>
      </trkpt>
      <trkpt lat="43.12474" lon="2.72511">
        <ele>135</ele>
        <time>2022-06-20T16:44:36Z</time>
      </trkpt>
      <trkpt lat="43.12449" lon="2.72477">
        <ele>132</ele>
        <time>2022-06-20T16:45:23Z</time>
      </trkpt>
      <trkpt lat="43.12435" lon="2.72462">
        <ele>130</ele>
        <time>2022-06-20T16:45:47Z</time>
      </trkpt>
      <trkpt lat="43.12412" lon="2.72413">
        <ele>125</ele>
        <time>2022-06-20T16:46:44Z</time>
      </trkpt>
      <trkpt lat="43.12409" lon="2.72409">
        <ele>124</ele>
        <time>2022-06-20T16:46:49Z</time>
      </trkpt>
      <trkpt lat="43.1238" lon="2.72392">
        <ele>122</ele>
        <time>2022-06-20T16:47:31Z</time>
      </trkpt>
      <trkpt lat="43.12374" lon="2.7239">
        <ele>122</ele>
        <time>2022-06-20T16:47:40Z</time>
      </trkpt>
      <trkpt lat="43.12353" lon="2.72394">
        <ele>121</ele>
        <time>2022-06-20T16:48:08Z</time>
      </trkpt>
      <trkpt lat="43.12349" lon="2.72393">
        <ele>120</ele>
        <time>2022-06-20T16:48:13Z</time>
      </trkpt>
      <trkpt lat="43.12346" lon="2.72389">
        <ele>120</ele>
        <time>2022-06-20T16:48:19Z</time>
      </trkpt>
      <trkpt lat="43.12344" lon="2.72377">
        <ele>118</ele>
        <time>2022-06-20T16:48:31Z</time>
      </trkpt>
      <trkpt lat="43.12338" lon="2.72363">
        <ele>117</ele>
        <time>2022-06-20T16:48:47Z</time>
      </trkpt>
      <trkpt lat="43.12313" lon="2.72327">
        <ele>116</ele>
        <time>2022-06-20T16:49:35Z</time>
      </trkpt>
      <trkpt lat="43.12309" lon="2.72326">
        <ele>116</ele>
        <time>2022-06-20T16:49:41Z</time>
      </trkpt>
      <trkpt lat="43.12305" lon="2.72328">
        <ele>117</ele>
        <time>2022-06-20T16:49:46Z</time>
      </trkpt>
      <trkpt lat="43.12295" lon="2.72338">
        <ele>118</ele>
        <time>2022-06-20T16:50:03Z</time>
      </trkpt>
      <trkpt lat="43.12287" lon="2.72331">
        <ele>119</ele>
        <time>2022-06-20T16:50:15Z</time>
      </trkpt>
      <trkpt lat="43.1228" lon="2.72289">
        <ele>120</ele>
        <time>2022-06-20T16:50:57Z</time>
      </trkpt>
      <trkpt lat="43.12266" lon="2.72262">
        <ele>121</ele>
        <time>2022-06-20T16:51:30Z</time>
      </trkpt>
      <trkpt lat="43.12234" lon="2.72229">
        <ele>125</ele>
        <time>2022-06-20T16:52:23Z</time>
      </trkpt>
      <trkpt lat="43.12214" lon="2.72204">
        <ele>128</ele>
        <time>2022-06-20T16:52:59Z</time>
      </trkpt>
      <trkpt lat="43.12195" lon="2.7219">
        <ele>132</ele>
        <time>2022-06-20T16:53:28Z</time>
      </trkpt>
      <trkpt lat="43.12166" lon="2.72171">
        <ele>138</ele>
        <time>2022-06-20T16:54:11Z</time>
      </trkpt>
      <trkpt lat="43.12146" lon="2.7217">
        <ele>141</ele>
        <time>2022-06-20T16:54:38Z</time>
      </trkpt>
      <trkpt lat="43.1213" lon="2.72163">
        <ele>143</ele>
        <time>2022-06-20T16:55:00Z</time>
      </trkpt>
      <trkpt lat="43.12081" lon="2.72198">
        <ele>153</ele>
        <time>2022-06-20T16:56:14Z</time>
      </trkpt>
      <trkpt lat="43.12072" lon="2.72197">
        <ele>154</ele>
        <time>2022-06-20T16:56:26Z</time>
      </trkpt>
      <trkpt lat="43.12061" lon="2.72178">
        <ele>156</ele>
        <time>2022-06-20T16:56:49Z</time>
      </trkpt>
      <trkpt lat="43.12044" lon="2.72188">
        <ele>159</ele>
        <time>2022-06-20T16:57:14Z</time>
      </trkpt>
      <trkpt lat="43.12032" lon="2.72165">
        <ele>161</ele>
        <time>2022-06-20T16:57:42Z</time>
      </trkpt>
      <trkpt lat="43.11975" lon="2.72152">
        <ele>169</ele>
        <time>2022-06-20T16:58:59Z</time>
      </trkpt>
      <trkpt lat="43.11959" lon="2.72141">
        <ele>171</ele>
        <time>2022-06-20T16:59:23Z</time>
      </trkpt>
      <trkpt lat="43.11954" lon="2.72114">
        <ele>173</ele>
        <time>2022-06-20T16:59:50Z</time>
      </trkpt>
      <trkpt lat="43.11943" lon="2.721">
        <ele>174</ele>
        <time>2022-06-20T17:00:10Z</time>
      </trkpt>
      <trkpt lat="43.11936" lon="2.72082">
        <ele>176</ele>
        <time>2022-06-20T17:00:30Z</time>
      </trkpt>
      <trkpt lat="43.11943" lon="2.72067">
        <ele>176</ele>
        <time>2022-06-20T17:00:47Z</time>
      </trkpt>
      <trkpt lat="43.11944" lon="2.72057">
        <ele>176</ele>
        <time>2022-06-20T17:00:57Z</time>
      </trkpt>
      <trkpt lat="43.11936" lon="2.72042">
        <ele>178</ele>
        <time>2022-06-20T17:01:15Z</time>
      </trkpt>
      <trkpt lat="43.11924" lon="2.71988">
        <ele>184</ele>
        <time>2022-06-20T17:02:10Z</time>
      </trkpt>
      <trkpt lat="43.11924" lon="2.71893">
        <ele>188</ele>
        <time>2022-06-20T17:03:43Z</time>
      </trkpt>
      <trkpt lat="43.11916" lon="2.71887">
        <ele>189</ele>
        <time>2022-06-20T17:03:55Z</time>
      </trkpt>
      <trkpt lat="43.11906" lon="2.71892">
        <ele>190</ele>
        <time>2022-06-20T17:04:09Z</time>
      </trkpt>
      <trkpt lat="43.11869" lon="2.71899">
        <ele>191</ele>
        <time>2022-06-20T17:04:59Z</time>
      </trkpt>
      <trkpt lat="43.1185" lon="2.71905">
        <ele>192</ele>
        <time>2022-06-20T17:05:25Z</time>
      </trkpt>
      <trkpt lat="43.11819" lon="2.71907">
        <ele>190</ele>
        <time>2022-06-20T17:06:06Z</time>
      </trkpt>
      <trkpt lat="43.11804" lon="2.7201">
        <ele>187</ele>
        <time>2022-06-20T17:07:48Z</time>
      </trkpt>
      <trkpt lat="43.11807" lon="2.72024">
        <ele>186</ele>
        <time>2022-06-20T17:08:03Z</time>
      </trkpt>
      <trkpt lat="43.11811" lon="2.72064">
        <ele>186</ele>
        <time>2022-06-20T17:08:42Z</time>
      </trkpt>
      <trkpt lat="43.11802" lon="2.72083">
        <ele>185</ele>
        <time>2022-06-20T17:09:04Z</time>
      </trkpt>
      <trkpt lat="43.118" lon="2.72101">
        <ele>183</ele>
        <time>2022-06-20T17:09:22Z</time>
      </trkpt>
      <trkpt lat="43.11756" lon="2.72208">
        <ele>177</ele>
        <time>2022-06-20T17:11:21Z</time>
      </trkpt>
      <trkpt lat="43.11753" lon="2.72274">
        <ele>173</ele>
        <time>2022-06-20T17:12:26Z</time>
      </trkpt>
      <trkpt lat="43.11749" lon="2.7231">
        <ele>171</ele>
        <time>2022-06-20T17:13:01Z</time>
      </trkpt>
      <trkpt lat="43.11746" lon="2.72365">
        <ele>168</ele>
        <time>2022-06-20T17:13:55Z</time>
      </trkpt>
      <trkpt lat="43.11737" lon="2.72366">
        <ele>167</ele>
        <time>2022-06-20T17:14:07Z</time>
      </trkpt>
      <trkpt lat="43.11729" lon="2.72354">
        <ele>168</ele>
        <time>2022-06-20T17:14:23Z</time>
      </trkpt>
      <trkpt lat="43.11683" lon="2.72197">
        <ele>170</ele>
        <time>2022-06-20T17:17:08Z</time>
      </trkpt>
      <trkpt lat="43.1168" lon="2.72169">
        <ele>171</ele>
        <time>2022-06-20T17:17:35Z</time>
      </trkpt>
      <trkpt lat="43.11669" lon="2.72162">
        <ele>169</ele>
        <time>2022-06-20T17:17:51Z</time>
      </trkpt>
      <trkpt lat="43.11649" lon="2.72168">
        <ele>168</ele>
        <time>2022-06-20T17:18:19Z</time>
      </trkpt>
      <trkpt lat="43.11623" lon="2.72168">
        <ele>166</ele>
        <time>2022-06-20T17:18:53Z</time>
      </trkpt>
      <trkpt lat="43.11622" lon="2.72176">
        <ele>167</ele>
        <time>2022-06-20T17:19:01Z</time>
      </trkpt>
      <trkpt lat="43.11631" lon="2.72106">
        <ele>165</ele>
        <time>2022-06-20T17:20:11Z</time>
      </trkpt>
      <trkpt lat="43.11701" lon="2.71946">
        <ele>176</ele>
        <time>2022-06-20T17:23:12Z</time>
      </trkpt>
      <trkpt lat="43.11719" lon="2.71938">
        <ele>177</ele>
        <time>2022-06-20T17:23:38Z</time>
      </trkpt>
      <trkpt lat="43.11748" lon="2.71949">
        <ele>180</ele>
        <time>2022-06-20T17:24:18Z</time>
      </trkpt>
      <trkpt lat="43.11754" lon="2.71902">
        <ele>179</ele>
        <time>2022-06-20T17:25:04Z</time>
      </trkpt>
      <trkpt lat="43.11752" lon="2.71882">
        <ele>177</ele>
        <time>2022-06-20T17:25:24Z</time>
      </trkpt>
      <trkpt lat="43.11749" lon="2.71809">
        <ele>173</ele>
        <time>2022-06-20T17:26:35Z</time>
      </trkpt>
      <trkpt lat="43.11744" lon="2.71777">
        <ele>173</ele>
        <time>2022-06-20T17:27:07Z</time>
      </trkpt>
      <trkpt lat="43.11725" lon="2.71722">
        <ele>169</ele>
        <time>2022-06-20T17:28:06Z</time>
      </trkpt>
      <trkpt lat="43.11725" lon="2.71704">
        <ele>169</ele>
        <time>2022-06-20T17:28:24Z</time>
      </trkpt>
      <trkpt lat="43.1172" lon="2.7165">
        <ele>165</ele>
        <time>2022-06-20T17:29:17Z</time>
      </trkpt>
      <trkpt lat="43.11709" lon="2.71559">
        <ele>150</ele>
        <time>2022-06-20T17:30:47Z</time>
      </trkpt>
      <trkpt lat="43.11714" lon="2.71541">
        <ele>149</ele>
        <time>2022-06-20T17:31:05Z</time>
      </trkpt>
      <trkpt lat="43.11717" lon="2.71502">
        <ele>144</ele>
        <time>2022-06-20T17:31:44Z</time>
      </trkpt>
      <trkpt lat="43.11724" lon="2.71487">
        <ele>144</ele>
        <time>2022-06-20T17:32:01Z</time>
      </trkpt>
      <trkpt lat="43.11735" lon="2.71436">
        <ele>139</ele>
        <time>2022-06-20T17:32:53Z</time>
      </trkpt>
      <trkpt lat="43.11735" lon="2.71424">
        <ele>137</ele>
        <time>2022-06-20T17:33:04Z</time>
      </trkpt>
      <trkpt lat="43.11745" lon="2.71402">
        <ele>135</ele>
        <time>2022-06-20T17:33:30Z</time>
      </trkpt>
      <trkpt lat="43.11776" lon="2.71341">
        <ele>128</ele>
        <time>2022-06-20T17:34:42Z</time>
      </trkpt>
      <trkpt lat="43.118" lon="2.713">
        <ele>123</ele>
        <time>2022-06-20T17:35:33Z</time>
      </trkpt>
      <trkpt lat="43.11829" lon="2.71269">
        <ele>119</ele>
        <time>2022-06-20T17:36:22Z</time>
      </trkpt>
      <trkpt lat="43.1184" lon="2.71262">
        <ele>118</ele>
        <time>2022-06-20T17:36:39Z</time>
      </trkpt>
      <trkpt lat="43.1188" lon="2.71186">
        <ele>110</ele>
        <time>2022-06-20T17:38:10Z</time>
      </trkpt>
      <trkpt lat="43.1189" lon="2.71174">
        <ele>109</ele>
        <time>2022-06-20T17:38:28Z</time>
      </trkpt>
      <trkpt lat="43.11896" lon="2.71173">
        <ele>109</ele>
        <time>2022-06-20T17:38:36Z</time>
      </trkpt>
      <trkpt lat="43.11904" lon="2.71189">
        <ele>111</ele>
        <time>2022-06-20T17:38:55Z</time>
      </trkpt>
      <trkpt lat="43.11911" lon="2.71194">
        <ele>111</ele>
        <time>2022-06-20T17:39:05Z</time>
      </trkpt>
      <trkpt lat="43.11915" lon="2.71193">
        <ele>111</ele>
        <time>2022-06-20T17:39:11Z</time>
      </trkpt>
      <trkpt lat="43.11933" lon="2.71165">
        <ele>108</ele>
        <time>2022-06-20T17:39:47Z</time>
      </trkpt>
      <trkpt lat="43.1194" lon="2.71162">
        <ele>107</ele>
        <time>2022-06-20T17:39:57Z</time>
      </trkpt>
      <trkpt lat="43.11946" lon="2.71165">
        <ele>107</ele>
        <time>2022-06-20T17:40:05Z</time>
      </trkpt>
      <trkpt lat="43.11949" lon="2.71179">
        <ele>109</ele>
        <time>2022-06-20T17:40:19Z</time>
      </trkpt>
      <trkpt lat="43.11955" lon="2.71228">
        <ele>112</ele>
        <time>2022-06-20T17:41:08Z</time>
      </trkpt>
      <trkpt lat="43.11962" lon="2.71235">
        <ele>112</ele>
        <time>2022-06-20T17:41:19Z</time>
      </trkpt>
      <trkpt lat="43.11968" lon="2.71229">
        <ele>112</ele>
        <time>2022-06-20T17:41:29Z</time>
      </trkpt>
      <trkpt lat="43.11981" lon="2.71192">
        <ele>108</ele>
        <time>2022-06-20T17:42:09Z</time>
      </trkpt>
      <trkpt lat="43.11995" lon="2.71161">
        <ele>105</ele>
        <time>2022-06-20T17:42:45Z</time>
      </trkpt>
      <trkpt lat="43.12014" lon="2.71136">
        <ele>101</ele>
        <time>2022-06-20T17:43:20Z</time>
      </trkpt>
      <trkpt lat="43.12029" lon="2.71121">
        <ele>98</ele>
        <time>2022-06-20T17:43:45Z</time>
      </trkpt>
      <trkpt lat="43.12033" lon="2.7112">
        <ele>98</ele>
        <time>2022-06-20T17:43:50Z</time>
      </trkpt>
      <trkpt lat="43.12039" lon="2.71101">
        <ele>96</ele>
        <time>2022-06-20T17:44:10Z</time>
      </trkpt>
      <trkpt lat="43.12016" lon="2.7105">
        <ele>95</ele>
        <time>2022-06-20T17:45:09Z</time>
      </trkpt>
      <trkpt lat="43.12016" lon="2.71044">
        <ele>95</ele>
        <time>2022-06-20T17:45:15Z</time>
      </trkpt>
      <trkpt lat="43.12018" lon="2.71041">
        <ele>94</ele>
        <time>2022-06-20T17:45:18Z</time>
      </trkpt>
      <trkpt lat="43.12035" lon="2.7103">
        <ele>92</ele>
        <time>2022-06-20T17:45:44Z</time>
      </trkpt>
      <trkpt lat="43.12038" lon="2.71025">
        <ele>92</ele>
        <time>2022-06-20T17:45:50Z</time>
      </trkpt>
      <trkpt lat="43.12039" lon="2.7102">
        <ele>91</ele>
        <time>2022-06-20T17:45:55Z</time>
      </trkpt>
      <trkpt lat="43.12036" lon="2.71013">
        <ele>91</ele>
        <time>2022-06-20T17:46:03Z</time>
      </trkpt>
      <trkpt lat="43.1203" lon="2.71009">
        <ele>91</ele>
        <time>2022-06-20T17:46:12Z</time>
      </trkpt>
      <trkpt lat="43.12017" lon="2.71005">
        <ele>92</ele>
        <time>2022-06-20T17:46:30Z</time>
      </trkpt>
      <trkpt lat="43.1199" lon="2.71003">
        <ele>92</ele>
        <time>2022-06-20T17:47:06Z</time>
      </trkpt>
      <trkpt lat="43.11985" lon="2.71">
        <ele>92</ele>
        <time>2022-06-20T17:47:13Z</time>
      </trkpt>
      <trkpt lat="43.11981" lon="2.70995">
        <ele>92</ele>
        <time>2022-06-20T17:47:20Z</time>
      </trkpt>
      <trkpt lat="43.1197" lon="2.70966">
        <ele>90</ele>
        <time>2022-06-20T17:47:52Z</time>
      </trkpt>
      <trkpt lat="43.11966" lon="2.70944">
        <ele>88</ele>
        <time>2022-06-20T17:48:14Z</time>
      </trkpt>
      <trkpt lat="43.11959" lon="2.70929">
        <ele>87</ele>
        <time>2022-06-20T17:48:31Z</time>
      </trkpt>
      <trkpt lat="43.11938" lon="2.70907">
        <ele>86</ele>
        <time>2022-06-20T17:49:07Z</time>
      </trkpt>
      <trkpt lat="43.11932" lon="2.70897">
        <ele>85</ele>
        <time>2022-06-20T17:49:19Z</time>
      </trkpt>
      <trkpt lat="43.11956" lon="2.70877">
        <ele>84</ele>
        <time>2022-06-20T17:49:57Z</time>
      </trkpt>
      <trkpt lat="43.11986" lon="2.70846">
        <ele>83</ele>
        <time>2022-06-20T17:50:47Z</time>
      </trkpt>
      <trkpt lat="43.12075" lon="2.70781">
        <ele>82</ele>
        <time>2022-06-20T17:53:01Z</time>
      </trkpt>
      <trkpt lat="43.12132" lon="2.70733">
        <ele>83</ele>
        <time>2022-06-20T17:54:31Z</time>
      </trkpt>
      <trkpt lat="43.12175" lon="2.70694">
        <ele>81</ele>
        <time>2022-06-20T17:55:40Z</time>
      </trkpt>
      <trkpt lat="43.12194" lon="2.7068">
        <ele>81</ele>
        <time>2022-06-20T17:56:08Z</time>
      </trkpt>
      <trkpt lat="43.12268" lon="2.70644">
        <ele>81</ele>
        <time>2022-06-20T17:57:53Z</time>
      </trkpt>
      <trkpt lat="43.1231" lon="2.70618">
        <ele>79</ele>
        <time>2022-06-20T17:58:55Z</time>
      </trkpt>
      <trkpt lat="43.12346" lon="2.70606">
        <ele>79</ele>
        <time>2022-06-20T17:59:44Z</time>
      </trkpt>
      <trkpt lat="43.12355" lon="2.70601">
        <ele>78</ele>
        <time>2022-06-20T17:59:57Z</time>
      </trkpt>
      <trkpt lat="43.12356" lon="2.70589">
        <ele>77</ele>
        <time>2022-06-20T18:00:09Z</time>
      </trkpt>
      <trkpt lat="43.12336" lon="2.70485">
        <ele>73</ele>
        <time>2022-06-20T18:01:54Z</time>
      </trkpt>
      <trkpt lat="43.12334" lon="2.70479">
        <ele>72</ele>
        <time>2022-06-20T18:02:00Z</time>
      </trkpt>
      <trkpt lat="43.1233" lon="2.70474">
        <ele>72</ele>
        <time>2022-06-20T18:02:07Z</time>
      </trkpt>
      <trkpt lat="43.12276" lon="2.7045">
        <ele>72</ele>
        <time>2022-06-20T18:03:23Z</time>
      </trkpt>
      <trkpt lat="43.12264" lon="2.70441">
        <ele>72</ele>
        <time>2022-06-20T18:03:41Z</time>
      </trkpt>
      <trkpt lat="43.12257" lon="2.70433">
        <ele>71</ele>
        <time>2022-06-20T18:03:53Z</time>
      </trkpt>
      <trkpt lat="43.12255" lon="2.70424">
        <ele>71</ele>
        <time>2022-06-20T18:04:03Z</time>
      </trkpt>
      <trkpt lat="43.12261" lon="2.70399">
        <ele>70</ele>
        <time>2022-06-20T18:04:28Z</time>
      </trkpt>
      <trkpt lat="43.12265" lon="2.70393">
        <ele>70</ele>
        <time>2022-06-20T18:04:36Z</time>
      </trkpt>
      <trkpt lat="43.12273" lon="2.70388">
        <ele>70</ele>
        <time>2022-06-20T18:04:48Z</time>
      </trkpt>
      <trkpt lat="43.12305" lon="2.70386">
        <ele>69</ele>
        <time>2022-06-20T18:05:31Z</time>
      </trkpt>
      <trkpt lat="43.12314" lon="2.70389">
        <ele>69</ele>
        <time>2022-06-20T18:05:43Z</time>
      </trkpt>
      <trkpt lat="43.12323" lon="2.70396">
        <ele>68</ele>
        <time>2022-06-20T18:05:57Z</time>
      </trkpt>
      <trkpt lat="43.12332" lon="2.70407">
        <ele>68</ele>
        <time>2022-06-20T18:06:13Z</time>
      </trkpt>
      <trkpt lat="43.12338" lon="2.70409">
        <ele>68</ele>
        <time>2022-06-20T18:06:21Z</time>
      </trkpt>
      <trkpt lat="43.12377" lon="2.70386">
        <ele>68</ele>
        <time>2022-06-20T18:07:18Z</time>
      </trkpt>
      <trkpt lat="43.12383" lon="2.70385">
        <ele>68</ele>
        <time>2022-06-20T18:07:26Z</time>
      </trkpt>
      <trkpt lat="43.12392" lon="2.70387">
        <ele>68</ele>
        <time>2022-06-20T18:07:38Z</time>
      </trkpt>
      <trkpt lat="43.12425" lon="2.70413">
        <ele>67</ele>
        <time>2022-06-20T18:08:29Z</time>
      </trkpt>
      <trkpt lat="43.12434" lon="2.70416">
        <ele>67</ele>
        <time>2022-06-20T18:08:41Z</time>
      </trkpt>
      <trkpt lat="43.12443" lon="2.70416">
        <ele>67</ele>
        <time>2022-06-20T18:08:53Z</time>
      </trkpt>
      <trkpt lat="43.12449" lon="2.70413">
        <ele>67</ele>
        <time>2022-06-20T18:09:02Z</time>
      </trkpt>
      <trkpt lat="43.12456" lon="2.70395">
        <ele>68</ele>
        <time>2022-06-20T18:09:22Z</time>
      </trkpt>
      <trkpt lat="43.12449" lon="2.70413">
        <ele>67</ele>
        <time>2022-06-20T18:09:41Z</time>
      </trkpt>
      <trkpt lat="43.12457" lon="2.7042">
        <ele>67</ele>
        <time>2022-06-20T18:09:54Z</time>
      </trkpt>
      <trkpt lat="43.1249" lon="2.70433">
        <ele>66</ele>
        <time>2022-06-20T18:10:40Z</time>
      </trkpt>
      <trkpt lat="43.12542" lon="2.70432">
        <ele>66</ele>
        <time>2022-06-20T18:11:49Z</time>
      </trkpt>
      <trkpt lat="43.12554" lon="2.70429">
        <ele>67</ele>
        <time>2022-06-20T18:12:06Z</time>
      </trkpt>
      <trkpt lat="43.12621" lon="2.70451">
        <ele>67</ele>
        <time>2022-06-20T18:13:38Z</time>
      </trkpt>
      <trkpt lat="43.12627" lon="2.70451">
        <ele>67</ele>
        <time>2022-06-20T18:13:46Z</time>
      </trkpt>
      <trkpt lat="43.12631" lon="2.70447">
        <ele>68</ele>
        <time>2022-06-20T18:13:52Z</time>
      </trkpt>
      <trkpt lat="43.12636" lon="2.7041">
        <ele>70</ele>
        <time>2022-06-20T18:14:29Z</time>
      </trkpt>
      <trkpt lat="43.12639" lon="2.70406">
        <ele>71</ele>
        <time>2022-06-20T18:14:34Z</time>
      </trkpt>
      <trkpt lat="43.12656" lon="2.70402">
        <ele>72</ele>
        <time>2022-06-20T18:14:57Z</time>
      </trkpt>
      <trkpt lat="43.12665" lon="2.70403">
        <ele>72</ele>
        <time>2022-06-20T18:15:09Z</time>
      </trkpt>
      <trkpt lat="43.12712" lon="2.70432">
        <ele>71</ele>
        <time>2022-06-20T18:16:18Z</time>
      </trkpt>
      <trkpt lat="43.1284" lon="2.70524">
        <ele>68</ele>
        <time>2022-06-20T18:19:31Z</time>
      </trkpt>
      <trkpt lat="43.12845" lon="2.70531">
        <ele>68</ele>
        <time>2022-06-20T18:19:41Z</time>
      </trkpt>
      <trkpt lat="43.12851" lon="2.70547">
        <ele>67</ele>
        <time>2022-06-20T18:19:58Z</time>
      </trkpt>
      <trkpt lat="43.1288" lon="2.70574">
        <ele>66</ele>
        <time>2022-06-20T18:20:45Z</time>
      </trkpt>
      <trkpt lat="43.129" lon="2.70583">
        <ele>66</ele>
        <time>2022-06-20T18:21:13Z</time>
      </trkpt>
      <trkpt lat="43.12936" lon="2.70592">
        <ele>66</ele>
        <time>2022-06-20T18:22:02Z</time>
      </trkpt>
      <trkpt lat="43.12964" lon="2.70608">
        <ele>65</ele>
        <time>2022-06-20T18:22:42Z</time>
      </trkpt>
      <trkpt lat="43.1299" lon="2.70616">
        <ele>64</ele>
        <time>2022-06-20T18:23:18Z</time>
      </trkpt>
      <trkpt lat="43.12994" lon="2.7062">
        <ele>64</ele>
        <time>2022-06-20T18:23:25Z</time>
      </trkpt>
      <trkpt lat="43.13" lon="2.70631">
        <ele>64</ele>
        <time>2022-06-20T18:23:38Z</time>
      </trkpt>
      <trkpt lat="43.13026" lon="2.70618">
        <ele>64</ele>
        <time>2022-06-20T18:24:15Z</time>
      </trkpt>
      <trkpt lat="43.13065" lon="2.7063">
        <ele>65</ele>
        <time>2022-06-20T18:25:08Z</time>
      </trkpt>
      <trkpt lat="43.13101" lon="2.70635">
        <ele>65</ele>
        <time>2022-06-20T18:25:56Z</time>
      </trkpt>
      <trkpt lat="43.13119" lon="2.70632">
        <ele>64</ele>
        <time>2022-06-20T18:26:21Z</time>
      </trkpt>
      <trkpt lat="43.13139" lon="2.70619">
        <ele>64</ele>
        <time>2022-06-20T18:26:50Z</time>
      </trkpt>
      <trkpt lat="43.13162" lon="2.70594">
        <ele>65</ele>
        <time>2022-06-20T18:27:29Z</time>
      </trkpt>
      <trkpt lat="43.13178" lon="2.70569">
        <ele>64</ele>
        <time>2022-06-20T18:28:02Z</time>
      </trkpt>
      <trkpt lat="43.1326" lon="2.70425">
        <ele>64</ele>
        <time>2022-06-20T18:31:00Z</time>
      </trkpt>
      <trkpt lat="43.13308" lon="2.70347">
        <ele>62</ele>
        <time>2022-06-20T18:32:39Z</time>
      </trkpt>
      <trkpt lat="43.13338" lon="2.70291">
        <ele>63</ele>
        <time>2022-06-20T18:33:47Z</time>
      </trkpt>
      <trkpt lat="43.1337" lon="2.70241">
        <ele>63</ele>
        <time>2022-06-20T18:34:51Z</time>
      </trkpt>
      <trkpt lat="43.13376" lon="2.7022">
        <ele>63</ele>
        <time>2022-06-20T18:35:13Z</time>
      </trkpt>
      <trkpt lat="43.13387" lon="2.70139">
        <ele>63</ele>
        <time>2022-06-20T18:36:34Z</time>
      </trkpt>
      <trkpt lat="43.13399" lon="2.70079">
        <ele>63</ele>
        <time>2022-06-20T18:37:34Z</time>
      </trkpt>
      <trkpt lat="43.13469" lon="2.70041">
        <ele>63</ele>
        <time>2022-06-20T18:39:15Z</time>
      </trkpt>
      <trkpt lat="43.13539" lon="2.70001">
        <ele>67</ele>
        <time>2022-06-20T18:40:56Z</time>
      </trkpt>
      <trkpt lat="43.13546" lon="2.69996">
        <ele>68</ele>
        <time>2022-06-20T18:41:06Z</time>
      </trkpt>
      <trkpt lat="43.13559" lon="2.69998">
        <ele>69</ele>
        <time>2022-06-20T18:41:24Z</time>
      </trkpt>
      <trkpt lat="43.13574" lon="2.69999">
        <ele>71</ele>
        <time>2022-06-20T18:41:44Z</time>
      </trkpt>
      <trkpt lat="43.13583" lon="2.70017">
        <ele>71</ele>
        <time>2022-06-20T18:42:05Z</time>
      </trkpt>
      <trkpt lat="43.13597" lon="2.70033">
        <ele>70</ele>
        <time>2022-06-20T18:42:30Z</time>
      </trkpt>
      <trkpt lat="43.13608" lon="2.70044">
        <ele>69</ele>
        <time>2022-06-20T18:42:48Z</time>
      </trkpt>
      <trkpt lat="43.13619" lon="2.70051">
        <ele>69</ele>
        <time>2022-06-20T18:43:04Z</time>
      </trkpt>
      <trkpt lat="43.1364" lon="2.70051">
        <ele>69</ele>
        <time>2022-06-20T18:43:32Z</time>
      </trkpt>
      <trkpt lat="43.13669" lon="2.70043">
        <ele>71</ele>
        <time>2022-06-20T18:44:11Z</time>
      </trkpt>
      <trkpt lat="43.13679" lon="2.70038">
        <ele>71</ele>
        <time>2022-06-20T18:44:26Z</time>
      </trkpt>
      <trkpt lat="43.13728" lon="2.70109">
        <ele>69</ele>
        <time>2022-06-20T18:46:01Z</time>
      </trkpt>
      <trkpt lat="43.13757" lon="2.70144">
        <ele>69</ele>
        <time>2022-06-20T18:46:52Z</time>
      </trkpt>
      <trkpt lat="43.13757" lon="2.70137">
        <ele>69</ele>
        <time>2022-06-20T18:46:59Z</time>
      </trkpt>
    </trkseg>
  </trk>
</gpx>